sensor_id;sensor_type;location;lat;lon;timestamp;P1;durP1;ratioP1;P2;durP2;ratioP2
82159;SDS011;71734;50.876;7.372;2023-11-21T00:00:29;10.20;;;4.07;;
82159;SDS011;71734;50.876;7.372;2023-11-21T00:02:55;8.55;;;3.65;;
82159;SDS011;71734;50.876;7.372;2023-11-21T00:05:22;9.88;;;4.00;;
82159;SDS011;71734;50.876;7.372;2023-11-21T00:07:49;8.25;;;4.15;;
82159;SDS011;71734;50.876;7.372;2023-11-21T00:10:16;8.85;;;3.83;;
82159;SDS011;71734;50.876;7.372;2023-11-21T00:12:44;9.55;;;4.10;;
82159;SDS011;71734;50.876;7.372;2023-11-21T00:15:13;8.73;;;4.20;;
82159;SDS011;71734;50.876;7.372;2023-11-21T00:17:40;9.23;;;4.07;;
82159;SDS011;71734;50.876;7.372;2023-11-21T00:20:07;9.65;;;4.07;;
82159;SDS011;71734;50.876;7.372;2023-11-21T00:22:37;8.95;;;3.80;;
82159;SDS011;71734;50.876;7.372;2023-11-21T00:25:05;8.40;;;3.45;;
82159;SDS011;71734;50.876;7.372;2023-11-21T00:27:34;9.60;;;3.85;;
82159;SDS011;71734;50.876;7.372;2023-11-21T00:30:02;8.70;;;3.90;;
82159;SDS011;71734;50.876;7.372;2023-11-21T00:32:30;7.97;;;3.53;;
82159;SDS011;71734;50.876;7.372;2023-11-21T00:34:57;9.95;;;3.80;;
82159;SDS011;71734;50.876;7.372;2023-11-21T00:37:24;10.02;;;3.47;;
82159;SDS011;71734;50.876;7.372;2023-11-21T00:39:50;8.43;;;3.63;;
82159;SDS011;71734;50.876;7.372;2023-11-21T00:42:17;8.48;;;3.90;;
82159;SDS011;71734;50.876;7.372;2023-11-21T00:44:43;9.10;;;3.83;;
82159;SDS011;71734;50.876;7.372;2023-11-21T00:47:11;11.35;;;3.80;;
82159;SDS011;71734;50.876;7.372;2023-11-21T00:49:38;9.40;;;3.75;;
82159;SDS011;71734;50.876;7.372;2023-11-21T00:52:05;8.32;;;4.13;;
82159;SDS011;71734;50.876;7.372;2023-11-21T00:54:32;9.82;;;4.10;;
82159;SDS011;71734;50.876;7.372;2023-11-21T00:56:58;8.82;;;4.03;;
82159;SDS011;71734;50.876;7.372;2023-11-21T00:59:24;9.80;;;3.97;;
82159;SDS011;71734;50.876;7.372;2023-11-21T01:01:51;10.30;;;4.07;;
82159;SDS011;71734;50.876;7.372;2023-11-21T01:04:20;8.23;;;4.05;;
82159;SDS011;71734;50.876;7.372;2023-11-21T01:06:46;9.27;;;3.72;;
82159;SDS011;71734;50.876;7.372;2023-11-21T01:09:13;9.48;;;3.90;;
82159;SDS011;71734;50.876;7.372;2023-11-21T01:11:40;8.98;;;4.00;;
82159;SDS011;71734;50.876;7.372;2023-11-21T01:14:06;8.77;;;4.13;;
82159;SDS011;71734;50.876;7.372;2023-11-21T01:16:33;8.02;;;3.85;;
82159;SDS011;71734;50.876;7.372;2023-11-21T01:19:00;8.80;;;3.97;;
82159;SDS011;71734;50.876;7.372;2023-11-21T01:21:36;11.55;;;4.38;;
82159;SDS011;71734;50.876;7.372;2023-11-21T01:24:03;9.05;;;4.28;;
82159;SDS011;71734;50.876;7.372;2023-11-21T01:26:32;9.25;;;3.92;;
82159;SDS011;71734;50.876;7.372;2023-11-21T01:28:58;9.60;;;4.53;;
82159;SDS011;71734;50.876;7.372;2023-11-21T01:31:25;10.18;;;4.43;;
82159;SDS011;71734;50.876;7.372;2023-11-21T01:33:54;9.48;;;4.28;;
82159;SDS011;71734;50.876;7.372;2023-11-21T01:36:21;9.70;;;4.07;;
82159;SDS011;71734;50.876;7.372;2023-11-21T01:38:48;8.25;;;4.18;;
82159;SDS011;71734;50.876;7.372;2023-11-21T01:41:15;8.70;;;4.15;;
82159;SDS011;71734;50.876;7.372;2023-11-21T01:43:41;10.88;;;4.43;;
82159;SDS011;71734;50.876;7.372;2023-11-21T01:46:08;10.38;;;4.32;;
82159;SDS011;71734;50.876;7.372;2023-11-21T01:48:35;8.35;;;3.45;;
82159;SDS011;71734;50.876;7.372;2023-11-21T01:51:02;8.07;;;3.40;;
82159;SDS011;71734;50.876;7.372;2023-11-21T01:53:30;9.40;;;3.78;;
82159;SDS011;71734;50.876;7.372;2023-11-21T01:55:57;10.73;;;3.92;;
82159;SDS011;71734;50.876;7.372;2023-11-21T01:58:24;8.65;;;3.65;;
82159;SDS011;71734;50.876;7.372;2023-11-21T02:00:54;9.43;;;3.92;;
82159;SDS011;71734;50.876;7.372;2023-11-21T02:03:20;8.40;;;3.60;;
82159;SDS011;71734;50.876;7.372;2023-11-21T02:05:47;8.93;;;3.28;;
82159;SDS011;71734;50.876;7.372;2023-11-21T02:08:13;7.35;;;3.25;;
82159;SDS011;71734;50.876;7.372;2023-11-21T02:10:40;9.48;;;3.60;;
82159;SDS011;71734;50.876;7.372;2023-11-21T02:13:07;8.65;;;3.42;;
82159;SDS011;71734;50.876;7.372;2023-11-21T02:15:34;7.32;;;2.88;;
82159;SDS011;71734;50.876;7.372;2023-11-21T02:18:01;9.80;;;3.10;;
82159;SDS011;71734;50.876;7.372;2023-11-21T02:20:28;9.52;;;3.80;;
82159;SDS011;71734;50.876;7.372;2023-11-21T02:22:56;9.40;;;3.78;;
82159;SDS011;71734;50.876;7.372;2023-11-21T02:25:24;8.23;;;3.60;;
82159;SDS011;71734;50.876;7.372;2023-11-21T02:27:51;8.32;;;3.85;;
82159;SDS011;71734;50.876;7.372;2023-11-21T02:30:19;8.45;;;3.55;;
82159;SDS011;71734;50.876;7.372;2023-11-21T02:32:46;8.20;;;3.80;;
82159;SDS011;71734;50.876;7.372;2023-11-21T02:35:13;8.50;;;3.65;;
82159;SDS011;71734;50.876;7.372;2023-11-21T02:37:40;8.25;;;3.40;;
82159;SDS011;71734;50.876;7.372;2023-11-21T02:40:09;8.18;;;3.70;;
82159;SDS011;71734;50.876;7.372;2023-11-21T02:42:37;7.75;;;3.22;;
82159;SDS011;71734;50.876;7.372;2023-11-21T02:45:04;8.75;;;3.47;;
82159;SDS011;71734;50.876;7.372;2023-11-21T02:47:32;8.77;;;3.42;;
82159;SDS011;71734;50.876;7.372;2023-11-21T02:50:01;8.25;;;3.42;;
82159;SDS011;71734;50.876;7.372;2023-11-21T02:52:27;11.52;;;3.70;;
82159;SDS011;71734;50.876;7.372;2023-11-21T02:54:53;9.18;;;3.40;;
82159;SDS011;71734;50.876;7.372;2023-11-21T02:57:21;8.23;;;3.38;;
82159;SDS011;71734;50.876;7.372;2023-11-21T02:59:48;10.02;;;3.50;;
82159;SDS011;71734;50.876;7.372;2023-11-21T03:02:15;8.07;;;3.83;;
82159;SDS011;71734;50.876;7.372;2023-11-21T03:04:42;10.50;;;3.70;;
82159;SDS011;71734;50.876;7.372;2023-11-21T03:07:08;10.82;;;3.35;;
82159;SDS011;71734;50.876;7.372;2023-11-21T03:09:35;10.05;;;3.35;;
82159;SDS011;71734;50.876;7.372;2023-11-21T03:12:02;8.40;;;3.67;;
82159;SDS011;71734;50.876;7.372;2023-11-21T03:14:30;8.60;;;3.45;;
82159;SDS011;71734;50.876;7.372;2023-11-21T03:16:56;7.90;;;3.63;;
82159;SDS011;71734;50.876;7.372;2023-11-21T03:19:23;9.40;;;3.53;;
82159;SDS011;71734;50.876;7.372;2023-11-21T03:21:49;9.45;;;3.50;;
82159;SDS011;71734;50.876;7.372;2023-11-21T03:24:18;8.55;;;3.78;;
82159;SDS011;71734;50.876;7.372;2023-11-21T03:26:45;9.02;;;3.53;;
82159;SDS011;71734;50.876;7.372;2023-11-21T03:29:11;11.85;;;3.90;;
82159;SDS011;71734;50.876;7.372;2023-11-21T03:31:39;8.45;;;3.35;;
82159;SDS011;71734;50.876;7.372;2023-11-21T03:34:06;9.43;;;3.88;;
82159;SDS011;71734;50.876;7.372;2023-11-21T03:36:35;7.97;;;3.50;;
82159;SDS011;71734;50.876;7.372;2023-11-21T03:39:02;7.95;;;3.58;;
82159;SDS011;71734;50.876;7.372;2023-11-21T03:41:30;12.18;;;4.20;;
82159;SDS011;71734;50.876;7.372;2023-11-21T03:43:56;9.90;;;3.97;;
82159;SDS011;71734;50.876;7.372;2023-11-21T03:46:23;9.10;;;4.20;;
82159;SDS011;71734;50.876;7.372;2023-11-21T03:48:51;9.48;;;4.13;;
82159;SDS011;71734;50.876;7.372;2023-11-21T03:51:17;11.75;;;4.25;;
82159;SDS011;71734;50.876;7.372;2023-11-21T03:53:46;8.93;;;3.75;;
82159;SDS011;71734;50.876;7.372;2023-11-21T03:59:00;10.02;;;4.13;;
82159;SDS011;71734;50.876;7.372;2023-11-21T04:01:28;11.80;;;4.32;;
82159;SDS011;71734;50.876;7.372;2023-11-21T04:03:56;10.77;;;4.78;;
82159;SDS011;71734;50.876;7.372;2023-11-21T04:06:22;11.77;;;4.80;;
82159;SDS011;71734;50.876;7.372;2023-11-21T04:08:49;9.38;;;4.13;;
82159;SDS011;71734;50.876;7.372;2023-11-21T04:11:17;11.65;;;5.03;;
82159;SDS011;71734;50.876;7.372;2023-11-21T04:13:44;12.77;;;5.32;;
82159;SDS011;71734;50.876;7.372;2023-11-21T04:16:11;13.68;;;5.07;;
82159;SDS011;71734;50.876;7.372;2023-11-21T04:18:38;13.00;;;5.22;;
82159;SDS011;71734;50.876;7.372;2023-11-21T04:21:06;10.23;;;4.60;;
82159;SDS011;71734;50.876;7.372;2023-11-21T04:23:35;11.60;;;4.72;;
82159;SDS011;71734;50.876;7.372;2023-11-21T04:26:02;15.63;;;5.32;;
82159;SDS011;71734;50.876;7.372;2023-11-21T04:28:28;11.02;;;4.80;;
82159;SDS011;71734;50.876;7.372;2023-11-21T04:30:55;16.25;;;5.45;;
82159;SDS011;71734;50.876;7.372;2023-11-21T04:33:22;13.15;;;5.35;;
82159;SDS011;71734;50.876;7.372;2023-11-21T04:35:48;10.82;;;4.40;;
82159;SDS011;71734;50.876;7.372;2023-11-21T04:38:16;11.02;;;4.50;;
82159;SDS011;71734;50.876;7.372;2023-11-21T04:40:44;9.88;;;4.22;;
82159;SDS011;71734;50.876;7.372;2023-11-21T04:43:10;10.82;;;4.88;;
82159;SDS011;71734;50.876;7.372;2023-11-21T04:45:37;11.68;;;4.85;;
82159;SDS011;71734;50.876;7.372;2023-11-21T04:48:05;12.60;;;4.63;;
82159;SDS011;71734;50.876;7.372;2023-11-21T04:50:32;12.77;;;5.60;;
82159;SDS011;71734;50.876;7.372;2023-11-21T04:52:59;16.00;;;5.32;;
82159;SDS011;71734;50.876;7.372;2023-11-21T04:55:26;14.05;;;5.55;;
82159;SDS011;71734;50.876;7.372;2023-11-21T04:57:53;14.32;;;5.38;;
82159;SDS011;71734;50.876;7.372;2023-11-21T05:03:07;13.80;;;5.95;;
82159;SDS011;71734;50.876;7.372;2023-11-21T05:05:34;14.63;;;5.80;;
82159;SDS011;71734;50.876;7.372;2023-11-21T05:08:01;15.32;;;6.22;;
82159;SDS011;71734;50.876;7.372;2023-11-21T05:10:31;13.70;;;6.10;;
82159;SDS011;71734;50.876;7.372;2023-11-21T05:13:00;16.60;;;6.55;;
82159;SDS011;71734;50.876;7.372;2023-11-21T05:15:30;14.63;;;6.20;;
82159;SDS011;71734;50.876;7.372;2023-11-21T05:17:56;14.30;;;5.53;;
82159;SDS011;71734;50.876;7.372;2023-11-21T05:20:25;14.50;;;5.70;;
82159;SDS011;71734;50.876;7.372;2023-11-21T05:22:50;12.60;;;5.00;;
82159;SDS011;71734;50.876;7.372;2023-11-21T05:25:17;11.00;;;4.60;;
82159;SDS011;71734;50.876;7.372;2023-11-21T05:27:45;10.68;;;4.50;;
82159;SDS011;71734;50.876;7.372;2023-11-21T05:30:12;11.65;;;4.97;;
82159;SDS011;71734;50.876;7.372;2023-11-21T05:32:40;10.07;;;3.85;;
82159;SDS011;71734;50.876;7.372;2023-11-21T05:35:08;12.40;;;4.53;;
82159;SDS011;71734;50.876;7.372;2023-11-21T05:37:39;13.90;;;5.28;;
82159;SDS011;71734;50.876;7.372;2023-11-21T05:40:06;13.00;;;5.70;;
82159;SDS011;71734;50.876;7.372;2023-11-21T05:42:33;16.20;;;6.07;;
82159;SDS011;71734;50.876;7.372;2023-11-21T05:45:02;15.45;;;6.57;;
82159;SDS011;71734;50.876;7.372;2023-11-21T05:47:35;15.38;;;6.18;;
82159;SDS011;71734;50.876;7.372;2023-11-21T05:50:02;21.23;;;7.43;;
82159;SDS011;71734;50.876;7.372;2023-11-21T05:52:30;17.85;;;7.00;;
82159;SDS011;71734;50.876;7.372;2023-11-21T05:54:57;18.92;;;7.88;;
82159;SDS011;71734;50.876;7.372;2023-11-21T05:57:27;20.50;;;7.53;;
82159;SDS011;71734;50.876;7.372;2023-11-21T05:59:53;19.85;;;7.30;;
82159;SDS011;71734;50.876;7.372;2023-11-21T06:02:22;18.10;;;7.45;;
82159;SDS011;71734;50.876;7.372;2023-11-21T06:04:48;21.92;;;8.52;;
82159;SDS011;71734;50.876;7.372;2023-11-21T06:07:15;19.05;;;7.63;;
82159;SDS011;71734;50.876;7.372;2023-11-21T06:09:41;19.13;;;6.88;;
82159;SDS011;71734;50.876;7.372;2023-11-21T06:12:09;18.45;;;7.47;;
82159;SDS011;71734;50.876;7.372;2023-11-21T06:14:36;19.25;;;7.85;;
82159;SDS011;71734;50.876;7.372;2023-11-21T06:17:02;21.33;;;7.63;;
82159;SDS011;71734;50.876;7.372;2023-11-21T06:19:31;19.48;;;7.13;;
82159;SDS011;71734;50.876;7.372;2023-11-21T06:21:57;17.98;;;7.38;;
82159;SDS011;71734;50.876;7.372;2023-11-21T06:24:23;21.40;;;7.95;;
82159;SDS011;71734;50.876;7.372;2023-11-21T06:26:50;18.30;;;7.03;;
82159;SDS011;71734;50.876;7.372;2023-11-21T06:29:16;19.88;;;8.00;;
82159;SDS011;71734;50.876;7.372;2023-11-21T06:31:43;19.02;;;7.45;;
82159;SDS011;71734;50.876;7.372;2023-11-21T06:34:12;18.42;;;7.10;;
82159;SDS011;71734;50.876;7.372;2023-11-21T06:36:40;15.00;;;6.28;;
82159;SDS011;71734;50.876;7.372;2023-11-21T06:39:06;12.95;;;5.25;;
82159;SDS011;71734;50.876;7.372;2023-11-21T06:41:33;14.38;;;4.93;;
82159;SDS011;71734;50.876;7.372;2023-11-21T06:44:00;13.75;;;6.00;;
82159;SDS011;71734;50.876;7.372;2023-11-21T06:46:27;13.90;;;5.88;;
82159;SDS011;71734;50.876;7.372;2023-11-21T06:48:54;14.63;;;5.57;;
82159;SDS011;71734;50.876;7.372;2023-11-21T06:51:20;18.02;;;7.05;;
82159;SDS011;71734;50.876;7.372;2023-11-21T06:53:48;18.20;;;7.20;;
82159;SDS011;71734;50.876;7.372;2023-11-21T06:56:15;18.48;;;7.20;;
82159;SDS011;71734;50.876;7.372;2023-11-21T06:58:42;18.35;;;7.43;;
82159;SDS011;71734;50.876;7.372;2023-11-21T07:01:10;17.27;;;7.05;;
82159;SDS011;71734;50.876;7.372;2023-11-21T07:03:37;18.30;;;7.57;;
82159;SDS011;71734;50.876;7.372;2023-11-21T07:06:03;19.55;;;7.95;;
82159;SDS011;71734;50.876;7.372;2023-11-21T07:08:30;20.02;;;7.65;;
82159;SDS011;71734;50.876;7.372;2023-11-21T07:10:58;16.67;;;6.93;;
82159;SDS011;71734;50.876;7.372;2023-11-21T07:13:25;16.73;;;7.40;;
82159;SDS011;71734;50.876;7.372;2023-11-21T07:15:51;19.20;;;8.10;;
82159;SDS011;71734;50.876;7.372;2023-11-21T07:18:19;19.92;;;7.70;;
82159;SDS011;71734;50.876;7.372;2023-11-21T07:20:45;17.38;;;7.38;;
82159;SDS011;71734;50.876;7.372;2023-11-21T07:23:12;16.70;;;7.22;;
82159;SDS011;71734;50.876;7.372;2023-11-21T07:25:40;20.50;;;8.15;;
82159;SDS011;71734;50.876;7.372;2023-11-21T07:28:08;19.48;;;7.75;;
82159;SDS011;71734;50.876;7.372;2023-11-21T07:30:35;19.70;;;7.45;;
82159;SDS011;71734;50.876;7.372;2023-11-21T07:33:02;20.15;;;7.68;;
82159;SDS011;71734;50.876;7.372;2023-11-21T07:35:29;20.45;;;7.68;;
82159;SDS011;71734;50.876;7.372;2023-11-21T07:37:55;18.42;;;7.10;;
82159;SDS011;71734;50.876;7.372;2023-11-21T07:40:22;19.25;;;7.80;;
82159;SDS011;71734;50.876;7.372;2023-11-21T07:42:48;21.83;;;8.40;;
82159;SDS011;71734;50.876;7.372;2023-11-21T07:45:16;20.60;;;7.57;;
82159;SDS011;71734;50.876;7.372;2023-11-21T07:47:42;21.55;;;8.13;;
82159;SDS011;71734;50.876;7.372;2023-11-21T07:50:09;21.90;;;7.63;;
82159;SDS011;71734;50.876;7.372;2023-11-21T07:52:36;20.60;;;7.68;;
82159;SDS011;71734;50.876;7.372;2023-11-21T07:55:03;22.35;;;8.45;;
82159;SDS011;71734;50.876;7.372;2023-11-21T07:57:30;19.15;;;7.50;;
82159;SDS011;71734;50.876;7.372;2023-11-21T07:59:57;22.77;;;8.00;;
82159;SDS011;71734;50.876;7.372;2023-11-21T08:02:24;23.02;;;8.20;;
82159;SDS011;71734;50.876;7.372;2023-11-21T08:04:52;19.13;;;7.55;;
82159;SDS011;71734;50.876;7.372;2023-11-21T08:07:21;21.85;;;8.43;;
82159;SDS011;71734;50.876;7.372;2023-11-21T08:09:48;26.02;;;9.20;;
82159;SDS011;71734;50.876;7.372;2023-11-21T08:12:15;21.55;;;8.88;;
82159;SDS011;71734;50.876;7.372;2023-11-21T08:14:42;22.40;;;9.18;;
82159;SDS011;71734;50.876;7.372;2023-11-21T08:17:09;23.50;;;9.25;;
82159;SDS011;71734;50.876;7.372;2023-11-21T08:19:37;22.83;;;9.05;;
82159;SDS011;71734;50.876;7.372;2023-11-21T08:22:04;22.02;;;8.95;;
82159;SDS011;71734;50.876;7.372;2023-11-21T08:24:32;24.92;;;9.75;;
82159;SDS011;71734;50.876;7.372;2023-11-21T08:27:08;23.80;;;9.60;;
82159;SDS011;71734;50.876;7.372;2023-11-21T08:29:34;24.25;;;9.38;;
82159;SDS011;71734;50.876;7.372;2023-11-21T08:32:01;23.65;;;9.07;;
82159;SDS011;71734;50.876;7.372;2023-11-21T08:34:28;24.30;;;9.38;;
82159;SDS011;71734;50.876;7.372;2023-11-21T08:36:56;24.83;;;9.20;;
82159;SDS011;71734;50.876;7.372;2023-11-21T08:39:22;23.77;;;8.65;;
82159;SDS011;71734;50.876;7.372;2023-11-21T08:41:49;23.40;;;9.57;;
82159;SDS011;71734;50.876;7.372;2023-11-21T08:44:16;21.73;;;8.70;;
82159;SDS011;71734;50.876;7.372;2023-11-21T08:46:43;25.13;;;9.07;;
82159;SDS011;71734;50.876;7.372;2023-11-21T08:49:10;25.75;;;9.43;;
82159;SDS011;71734;50.876;7.372;2023-11-21T08:51:36;25.50;;;9.65;;
82159;SDS011;71734;50.876;7.372;2023-11-21T08:54:05;24.15;;;9.90;;
82159;SDS011;71734;50.876;7.372;2023-11-21T08:56:33;22.80;;;8.57;;
82159;SDS011;71734;50.876;7.372;2023-11-21T08:59:00;24.65;;;8.90;;
82159;SDS011;71734;50.876;7.372;2023-11-21T09:01:27;21.83;;;9.20;;
82159;SDS011;71734;50.876;7.372;2023-11-21T09:03:53;22.15;;;9.48;;
82159;SDS011;71734;50.876;7.372;2023-11-21T09:06:20;23.38;;;9.05;;
82159;SDS011;71734;50.876;7.372;2023-11-21T09:08:46;24.13;;;9.38;;
82159;SDS011;71734;50.876;7.372;2023-11-21T09:11:14;24.15;;;10.07;;
82159;SDS011;71734;50.876;7.372;2023-11-21T09:13:42;28.17;;;9.43;;
82159;SDS011;71734;50.876;7.372;2023-11-21T09:16:08;24.17;;;8.82;;
82159;SDS011;71734;50.876;7.372;2023-11-21T09:18:35;23.35;;;8.48;;
82159;SDS011;71734;50.876;7.372;2023-11-21T09:21:02;23.80;;;9.02;;
82159;SDS011;71734;50.876;7.372;2023-11-21T09:23:29;24.15;;;8.45;;
82159;SDS011;71734;50.876;7.372;2023-11-21T09:25:56;25.75;;;9.30;;
82159;SDS011;71734;50.876;7.372;2023-11-21T09:28:26;23.02;;;8.15;;
82159;SDS011;71734;50.876;7.372;2023-11-21T09:30:53;24.60;;;8.70;;
82159;SDS011;71734;50.876;7.372;2023-11-21T09:33:19;24.35;;;9.52;;
82159;SDS011;71734;50.876;7.372;2023-11-21T09:35:47;25.42;;;8.32;;
82159;SDS011;71734;50.876;7.372;2023-11-21T09:38:14;24.17;;;8.45;;
82159;SDS011;71734;50.876;7.372;2023-11-21T09:40:41;24.55;;;8.52;;
82159;SDS011;71734;50.876;7.372;2023-11-21T09:43:08;25.35;;;8.80;;
82159;SDS011;71734;50.876;7.372;2023-11-21T09:45:43;20.67;;;7.63;;
82159;SDS011;71734;50.876;7.372;2023-11-21T09:48:15;25.20;;;8.35;;
82159;SDS011;71734;50.876;7.372;2023-11-21T09:50:43;22.52;;;8.43;;
82159;SDS011;71734;50.876;7.372;2023-11-21T09:53:11;23.35;;;8.75;;
82159;SDS011;71734;50.876;7.372;2023-11-21T09:55:42;26.13;;;8.52;;
82159;SDS011;71734;50.876;7.372;2023-11-21T09:58:09;25.52;;;8.30;;
82159;SDS011;71734;50.876;7.372;2023-11-21T10:00:37;22.13;;;8.85;;
82159;SDS011;71734;50.876;7.372;2023-11-21T10:03:08;23.80;;;8.20;;
82159;SDS011;71734;50.876;7.372;2023-11-21T10:05:35;23.85;;;8.73;;
82159;SDS011;71734;50.876;7.372;2023-11-21T10:08:01;21.17;;;8.80;;
82159;SDS011;71734;50.876;7.372;2023-11-21T10:10:31;24.85;;;8.93;;
82159;SDS011;71734;50.876;7.372;2023-11-21T10:13:01;22.52;;;8.55;;
82159;SDS011;71734;50.876;7.372;2023-11-21T10:15:31;21.52;;;8.18;;
82159;SDS011;71734;50.876;7.372;2023-11-21T10:18:01;23.02;;;8.45;;
82159;SDS011;71734;50.876;7.372;2023-11-21T10:20:30;23.98;;;8.50;;
82159;SDS011;71734;50.876;7.372;2023-11-21T10:22:58;24.33;;;8.82;;
82159;SDS011;71734;50.876;7.372;2023-11-21T10:25:27;28.30;;;9.18;;
82159;SDS011;71734;50.876;7.372;2023-11-21T10:27:57;25.33;;;8.98;;
82159;SDS011;71734;50.876;7.372;2023-11-21T10:30:27;22.75;;;8.68;;
82159;SDS011;71734;50.876;7.372;2023-11-21T10:32:56;21.00;;;7.68;;
82159;SDS011;71734;50.876;7.372;2023-11-21T10:35:25;21.38;;;7.95;;
82159;SDS011;71734;50.876;7.372;2023-11-21T10:38:06;25.50;;;8.30;;
82159;SDS011;71734;50.876;7.372;2023-11-21T10:40:35;23.98;;;9.30;;
82159;SDS011;71734;50.876;7.372;2023-11-21T10:43:05;23.75;;;8.23;;
82159;SDS011;71734;50.876;7.372;2023-11-21T10:45:33;22.17;;;8.15;;
82159;SDS011;71734;50.876;7.372;2023-11-21T10:50:57;22.33;;;8.48;;
82159;SDS011;71734;50.876;7.372;2023-11-21T10:53:23;23.67;;;8.65;;
82159;SDS011;71734;50.876;7.372;2023-11-21T10:55:59;23.00;;;8.73;;
82159;SDS011;71734;50.876;7.372;2023-11-21T10:58:28;23.52;;;8.45;;
82159;SDS011;71734;50.876;7.372;2023-11-21T11:00:57;22.08;;;8.40;;
82159;SDS011;71734;50.876;7.372;2023-11-21T11:03:24;21.08;;;8.25;;
82159;SDS011;71734;50.876;7.372;2023-11-21T11:05:52;20.52;;;8.55;;
82159;SDS011;71734;50.876;7.372;2023-11-21T11:08:21;21.05;;;7.95;;
82159;SDS011;71734;50.876;7.372;2023-11-21T11:10:51;23.75;;;8.05;;
82159;SDS011;71734;50.876;7.372;2023-11-21T11:13:18;21.02;;;8.93;;
82159;SDS011;71734;50.876;7.372;2023-11-21T11:15:46;22.40;;;8.35;;
82159;SDS011;71734;50.876;7.372;2023-11-21T11:18:13;22.73;;;9.15;;
82159;SDS011;71734;50.876;7.372;2023-11-21T11:20:42;22.88;;;8.25;;
82159;SDS011;71734;50.876;7.372;2023-11-21T11:23:14;26.10;;;9.00;;
82159;SDS011;71734;50.876;7.372;2023-11-21T11:26:19;22.92;;;8.30;;
82159;SDS011;71734;50.876;7.372;2023-11-21T11:28:57;21.70;;;8.63;;
82159;SDS011;71734;50.876;7.372;2023-11-21T11:31:33;22.45;;;8.77;;
82159;SDS011;71734;50.876;7.372;2023-11-21T11:34:08;21.88;;;8.00;;
82159;SDS011;71734;50.876;7.372;2023-11-21T11:36:51;22.17;;;8.50;;
82159;SDS011;71734;50.876;7.372;2023-11-21T11:39:27;23.30;;;8.48;;
82159;SDS011;71734;50.876;7.372;2023-11-21T11:41:55;22.60;;;9.38;;
82159;SDS011;71734;50.876;7.372;2023-11-21T11:47:19;25.17;;;9.13;;
82159;SDS011;71734;50.876;7.372;2023-11-21T11:50:00;22.73;;;9.00;;
82159;SDS011;71734;50.876;7.372;2023-11-21T11:52:32;22.13;;;8.45;;
82159;SDS011;71734;50.876;7.372;2023-11-21T11:55:03;21.60;;;8.95;;
82159;SDS011;71734;50.876;7.372;2023-11-21T11:57:30;23.77;;;8.20;;
82159;SDS011;71734;50.876;7.372;2023-11-21T12:00:11;22.98;;;8.65;;
82159;SDS011;71734;50.876;7.372;2023-11-21T12:02:44;21.75;;;7.78;;
82159;SDS011;71734;50.876;7.372;2023-11-21T12:05:13;24.30;;;9.05;;
82159;SDS011;71734;50.876;7.372;2023-11-21T12:07:44;20.60;;;8.25;;
82159;SDS011;71734;50.876;7.372;2023-11-21T12:10:13;21.17;;;7.55;;
82159;SDS011;71734;50.876;7.372;2023-11-21T12:12:43;21.70;;;7.93;;
82159;SDS011;71734;50.876;7.372;2023-11-21T12:15:11;20.52;;;8.25;;
82159;SDS011;71734;50.876;7.372;2023-11-21T12:17:38;22.60;;;8.55;;
82159;SDS011;71734;50.876;7.372;2023-11-21T12:20:06;23.13;;;8.32;;
82159;SDS011;71734;50.876;7.372;2023-11-21T12:22:39;22.13;;;8.23;;
82159;SDS011;71734;50.876;7.372;2023-11-21T12:25:15;20.92;;;7.57;;
82159;SDS011;71734;50.876;7.372;2023-11-21T12:27:43;20.73;;;7.53;;
82159;SDS011;71734;50.876;7.372;2023-11-21T12:30:11;22.70;;;8.20;;
82159;SDS011;71734;50.876;7.372;2023-11-21T12:32:40;22.88;;;7.95;;
82159;SDS011;71734;50.876;7.372;2023-11-21T12:35:08;21.70;;;7.07;;
82159;SDS011;71734;50.876;7.372;2023-11-21T12:37:36;20.80;;;7.35;;
82159;SDS011;71734;50.876;7.372;2023-11-21T12:40:03;23.88;;;8.77;;
82159;SDS011;71734;50.876;7.372;2023-11-21T12:42:33;21.92;;;7.90;;
82159;SDS011;71734;50.876;7.372;2023-11-21T12:45:12;23.58;;;8.27;;
82159;SDS011;71734;50.876;7.372;2023-11-21T12:47:45;22.92;;;7.90;;
82159;SDS011;71734;50.876;7.372;2023-11-21T12:50:13;23.75;;;8.20;;
82159;SDS011;71734;50.876;7.372;2023-11-21T12:52:43;25.27;;;9.57;;
82159;SDS011;71734;50.876;7.372;2023-11-21T12:55:16;26.92;;;9.90;;
82159;SDS011;71734;50.876;7.372;2023-11-21T12:57:45;23.48;;;8.38;;
82159;SDS011;71734;50.876;7.372;2023-11-21T13:00:18;22.42;;;8.68;;
82159;SDS011;71734;50.876;7.372;2023-11-21T13:02:53;21.85;;;7.75;;
82159;SDS011;71734;50.876;7.372;2023-11-21T13:05:25;21.02;;;7.00;;
82159;SDS011;71734;50.876;7.372;2023-11-21T13:07:55;17.52;;;6.60;;
82159;SDS011;71734;50.876;7.372;2023-11-21T13:10:24;21.23;;;7.63;;
82159;SDS011;71734;50.876;7.372;2023-11-21T13:15:23;20.17;;;7.20;;
82159;SDS011;71734;50.876;7.372;2023-11-21T13:17:50;19.08;;;6.55;;
82159;SDS011;71734;50.876;7.372;2023-11-21T13:20:19;23.02;;;7.30;;
82159;SDS011;71734;50.876;7.372;2023-11-21T13:22:49;21.05;;;6.80;;
82159;SDS011;71734;50.876;7.372;2023-11-21T13:25:19;23.55;;;8.05;;
82159;SDS011;71734;50.876;7.372;2023-11-21T13:27:50;21.23;;;7.70;;
82159;SDS011;71734;50.876;7.372;2023-11-21T13:30:18;21.27;;;7.57;;
82159;SDS011;71734;50.876;7.372;2023-11-21T13:32:48;18.58;;;7.13;;
82159;SDS011;71734;50.876;7.372;2023-11-21T13:35:16;20.70;;;8.02;;
82159;SDS011;71734;50.876;7.372;2023-11-21T13:37:47;21.35;;;7.50;;
82159;SDS011;71734;50.876;7.372;2023-11-21T13:40:16;22.27;;;7.55;;
82159;SDS011;71734;50.876;7.372;2023-11-21T13:42:47;29.00;;;8.77;;
82159;SDS011;71734;50.876;7.372;2023-11-21T13:45:15;21.75;;;8.98;;
82159;SDS011;71734;50.876;7.372;2023-11-21T13:47:44;18.80;;;6.68;;
82159;SDS011;71734;50.876;7.372;2023-11-21T13:50:13;23.10;;;8.70;;
82159;SDS011;71734;50.876;7.372;2023-11-21T13:52:47;21.08;;;7.60;;
82159;SDS011;71734;50.876;7.372;2023-11-21T13:55:13;22.08;;;8.05;;
82159;SDS011;71734;50.876;7.372;2023-11-21T13:57:40;23.35;;;6.93;;
82159;SDS011;71734;50.876;7.372;2023-11-21T14:00:08;17.83;;;6.72;;
82159;SDS011;71734;50.876;7.372;2023-11-21T14:02:56;20.25;;;7.65;;
82159;SDS011;71734;50.876;7.372;2023-11-21T14:05:32;20.45;;;6.72;;
82159;SDS011;71734;50.876;7.372;2023-11-21T14:07:59;17.70;;;7.80;;
82159;SDS011;71734;50.876;7.372;2023-11-21T14:10:29;26.17;;;8.50;;
82159;SDS011;71734;50.876;7.372;2023-11-21T14:13:02;25.33;;;8.27;;
82159;SDS011;71734;50.876;7.372;2023-11-21T14:15:29;26.08;;;9.10;;
82159;SDS011;71734;50.876;7.372;2023-11-21T14:17:59;22.08;;;7.95;;
82159;SDS011;71734;50.876;7.372;2023-11-21T14:20:27;20.90;;;7.65;;
82159;SDS011;71734;50.876;7.372;2023-11-21T14:22:55;26.23;;;9.05;;
82159;SDS011;71734;50.876;7.372;2023-11-21T14:25:21;21.88;;;8.52;;
82159;SDS011;71734;50.876;7.372;2023-11-21T14:30:18;28.90;;;9.50;;
82159;SDS011;71734;50.876;7.372;2023-11-21T14:32:47;25.10;;;9.23;;
82159;SDS011;71734;50.876;7.372;2023-11-21T14:35:15;24.02;;;8.93;;
82159;SDS011;71734;50.876;7.372;2023-11-21T14:37:50;22.25;;;9.23;;
82159;SDS011;71734;50.876;7.372;2023-11-21T14:40:17;23.10;;;8.20;;
82159;SDS011;71734;50.876;7.372;2023-11-21T14:42:46;27.15;;;8.85;;
82159;SDS011;71734;50.876;7.372;2023-11-21T14:45:13;24.83;;;9.48;;
82159;SDS011;71734;50.876;7.372;2023-11-21T14:47:44;23.40;;;8.95;;
82159;SDS011;71734;50.876;7.372;2023-11-21T14:50:18;26.35;;;9.93;;
82159;SDS011;71734;50.876;7.372;2023-11-21T14:53:02;26.38;;;8.50;;
82159;SDS011;71734;50.876;7.372;2023-11-21T14:55:31;21.65;;;8.57;;
82159;SDS011;71734;50.876;7.372;2023-11-21T14:58:03;22.98;;;8.88;;
82159;SDS011;71734;50.876;7.372;2023-11-21T15:00:29;23.50;;;9.70;;